< < Back
Terminal Aerodrome Forecast


Current Version              Previous Versions:   1  2  3  4  5  6  7  8  9  

Terminal Aerodrome Forecast

541
FTUS42 KGSP 280520
TAFAND
TAF
KAND 280520Z 2806/2906 33003KT P6SM SKC
     FM281400 02003KT P6SM SKC
     FM290000 15003KT P6SM FEW250=



Latest METAR

784
SAUS70 KWBC 282200 RRA
MTRAND
METAR KAND 282156Z AUTO 28004KT 10SM CLR 11/M08 A3024 RMK AO2 SLP241
T01061083


USA.gov is the U.S. government's official web portal to all federal, state and local government web resources and services.